createdAt,value
2017-12-13T00:01:36.563Z,1.00
2017-12-13T00:04:06.108Z,1.48
2017-12-13T00:06:35.570Z,1.27
2017-12-13T00:09:05.081Z,1.80
2017-12-13T00:11:34.615Z,1.20
2017-12-13T00:14:04.278Z,1.20
2017-12-13T00:16:33.772Z,1.00
2017-12-13T00:19:03.320Z,1.10
2017-12-13T00:21:32.862Z,1.10
2017-12-13T00:24:02.436Z,1.10
2017-12-13T00:26:31.912Z,1.02
2017-12-13T00:29:01.438Z,1.20
2017-12-13T00:31:30.917Z,1.00
2017-12-13T00:34:00.461Z,2.00
2017-12-13T00:36:30.097Z,1.05
2017-12-13T00:38:59.567Z,0.90
2017-12-13T00:41:29.204Z,1.10
2017-12-13T00:43:58.758Z,2.85
2017-12-13T00:46:28.290Z,1.20
2017-12-13T00:48:57.807Z,1.10
2017-12-13T00:51:27.291Z,1.40
2017-12-13T00:53:56.824Z,0.82
2017-12-13T00:56:26.340Z,1.05
2017-12-13T00:58:55.834Z,1.10
2017-12-13T01:01:25.310Z,1.50
2017-12-13T01:03:54.844Z,1.10
2017-12-13T01:06:24.304Z,1.42
2017-12-13T01:08:53.823Z,1.42
2017-12-13T01:11:23.359Z,0.93
2017-12-13T01:13:52.859Z,1.40
2017-12-13T01:16:22.344Z,1.12
2017-12-13T01:18:51.882Z,0.90
2017-12-13T01:21:21.385Z,1.50
2017-12-13T01:23:50.928Z,1.50
2017-12-13T01:26:20.400Z,1.42
2017-12-13T01:28:49.907Z,1.25
2017-12-13T01:31:19.415Z,1.67
2017-12-13T01:33:48.940Z,0.90
2017-12-13T01:36:19.095Z,1.45
2017-12-13T01:38:48.624Z,1.37
2017-12-13T01:41:18.293Z,1.00
2017-12-13T01:43:47.793Z,1.33
2017-12-13T01:46:17.332Z,1.05
2017-12-13T01:48:46.864Z,1.10
2017-12-13T01:51:16.652Z,1.20
2017-12-13T01:53:46.153Z,1.02
2017-12-13T01:56:15.675Z,1.10
2017-12-13T01:58:45.169Z,1.20
2017-12-13T02:01:14.704Z,1.15
2017-12-13T02:03:44.286Z,1.20
2017-12-13T02:06:13.816Z,1.17
2017-12-13T02:08:43.429Z,1.10
2017-12-13T02:11:12.936Z,1.10
2017-12-13T02:13:42.493Z,0.90
2017-12-13T02:16:12.002Z,1.17
2017-12-13T02:18:41.550Z,1.90
2017-12-13T02:21:11.061Z,1.20
2017-12-13T02:23:40.571Z,1.00
2017-12-13T02:26:10.063Z,1.10
2017-12-13T02:28:39.579Z,1.10
2017-12-13T02:31:09.049Z,1.30
2017-12-13T02:33:38.546Z,1.10
2017-12-13T02:36:08.062Z,1.20
2017-12-13T02:38:37.567Z,1.25
2017-12-13T02:41:07.069Z,0.95
2017-12-13T02:43:37.456Z,0.80
2017-12-13T02:46:06.991Z,0.90
2017-12-13T02:48:36.476Z,1.40
2017-12-13T02:51:06.006Z,1.30
2017-12-13T02:53:35.482Z,1.00
2017-12-13T02:56:05.000Z,1.40
2017-12-13T02:58:34.606Z,1.50
2017-12-13T03:01:04.089Z,1.10
2017-12-13T03:03:33.623Z,1.73
2017-12-13T03:06:03.109Z,1.05
2017-12-13T03:08:32.651Z,1.20
2017-12-13T03:11:02.309Z,0.93
2017-12-13T03:13:31.800Z,0.80
2017-12-13T03:16:01.425Z,1.05
2017-12-13T03:18:31.031Z,2.28
2017-12-13T03:21:00.522Z,1.12
2017-12-13T03:23:30.034Z,1.33
2017-12-13T03:25:59.529Z,1.00
2017-12-13T03:28:29.037Z,1.20
2017-12-13T03:30:58.535Z,1.00
2017-12-13T03:33:28.096Z,0.90
2017-12-13T03:35:57.631Z,3.03
2017-12-13T03:38:27.092Z,1.20
2017-12-13T03:40:56.607Z,1.00
2017-12-13T03:43:26.157Z,1.10
2017-12-13T03:45:55.623Z,0.90
2017-12-13T03:48:25.177Z,1.20
2017-12-13T03:50:54.815Z,0.90
2017-12-13T03:53:24.291Z,1.00
2017-12-13T03:55:53.832Z,1.00
2017-12-13T03:58:23.308Z,1.20
2017-12-13T04:00:52.931Z,1.35
2017-12-13T04:03:22.465Z,0.77
2017-12-13T04:05:51.948Z,0.88
2017-12-13T04:08:21.517Z,0.90
2017-12-13T04:10:50.997Z,1.20
2017-12-13T04:13:20.997Z,0.90
2017-12-13T04:15:50.497Z,0.90
2017-12-13T04:18:20.037Z,1.20
2017-12-13T04:20:49.513Z,1.30
2017-12-13T04:23:19.189Z,0.80
2017-12-13T04:25:48.694Z,1.00
2017-12-13T04:28:18.203Z,0.80
2017-12-13T04:30:47.697Z,0.70
2017-12-13T04:33:17.215Z,0.80
2017-12-13T04:35:46.729Z,1.08
2017-12-13T04:38:16.233Z,0.73
2017-12-13T04:40:45.737Z,0.95
2017-12-13T04:43:15.239Z,0.85
2017-12-13T04:45:44.752Z,1.35
2017-12-13T04:48:14.260Z,1.00
2017-12-13T04:50:43.762Z,1.65
2017-12-13T04:53:13.250Z,1.23
2017-12-13T04:55:42.766Z,0.80
2017-12-13T04:58:12.271Z,0.95
2017-12-13T05:00:41.834Z,1.00
2017-12-13T05:03:11.302Z,1.20
2017-12-13T05:05:40.841Z,1.05
2017-12-13T05:08:10.356Z,0.85
2017-12-13T05:10:39.918Z,0.90
2017-12-13T05:13:09.480Z,1.05
2017-12-13T05:15:39.697Z,1.02
2017-12-13T05:18:09.213Z,1.00
2017-12-13T05:20:38.810Z,1.05
2017-12-13T05:23:08.881Z,0.75
2017-12-13T05:25:38.420Z,1.10
2017-12-13T05:28:07.922Z,1.12
2017-12-13T05:30:37.467Z,1.00
2017-12-13T05:33:06.995Z,1.17
2017-12-13T05:35:36.478Z,0.73
2017-12-13T05:38:06.002Z,0.90
2017-12-13T05:40:35.455Z,1.17
2017-12-13T05:43:04.991Z,1.02
2017-12-13T05:45:34.473Z,0.80
2017-12-13T05:48:03.980Z,0.80
2017-12-13T05:50:33.567Z,0.80
2017-12-13T05:53:03.042Z,1.90
2017-12-13T05:55:32.576Z,0.88
2017-12-13T05:58:02.051Z,1.15
2017-12-13T06:00:31.587Z,0.95
2017-12-13T06:03:01.093Z,0.82
2017-12-13T06:05:30.570Z,1.33
2017-12-13T06:08:00.067Z,1.00
2017-12-13T06:10:29.545Z,0.90
2017-12-13T06:12:59.060Z,0.98
2017-12-13T06:15:28.552Z,0.80
2017-12-13T06:17:58.209Z,1.00
2017-12-13T06:20:27.692Z,0.90
2017-12-13T06:22:57.221Z,0.85
2017-12-13T06:25:26.859Z,1.08
2017-12-13T06:27:56.381Z,0.95
2017-12-13T06:30:25.854Z,0.98
2017-12-13T06:32:55.420Z,0.90
2017-12-13T06:35:24.894Z,1.10
2017-12-13T06:37:54.447Z,1.52
2017-12-13T06:40:23.929Z,4.00
2017-12-13T06:42:53.430Z,1.23
2017-12-13T06:45:23.036Z,2.17
2017-12-13T06:47:52.558Z,1.65
2017-12-13T06:50:22.085Z,1.62
2017-12-13T06:52:51.578Z,1.90
2017-12-13T06:55:21.155Z,0.85
2017-12-13T06:57:50.719Z,1.58
2017-12-13T07:00:20.247Z,1.60
2017-12-13T07:02:49.699Z,1.42
2017-12-13T07:05:19.246Z,1.30
2017-12-13T07:07:48.730Z,1.02
2017-12-13T07:10:18.243Z,2.00
2017-12-13T07:12:47.740Z,1.30
2017-12-13T07:15:17.256Z,4.25
2017-12-13T07:17:46.761Z,1.55
2017-12-13T07:20:16.233Z,1.25
2017-12-13T07:22:46.512Z,1.10
2017-12-13T07:25:15.993Z,1.80
2017-12-13T07:27:45.582Z,1.25
2017-12-13T07:30:15.769Z,1.65
2017-12-13T07:32:45.272Z,1.20
2017-12-13T07:35:14.796Z,1.98
2017-12-13T07:37:44.335Z,0.93
2017-12-13T07:40:13.826Z,1.20
2017-12-13T07:42:43.336Z,4.05
2017-12-13T07:45:12.868Z,2.40
2017-12-13T07:47:42.500Z,1.37
2017-12-13T07:50:11.981Z,1.75
2017-12-13T07:52:42.121Z,6.05
2017-12-13T07:55:11.641Z,2.58
2017-12-13T07:57:41.145Z,1.08
2017-12-13T08:00:10.641Z,2.42
2017-12-13T08:02:40.144Z,1.37
2017-12-13T08:05:09.775Z,1.20
2017-12-13T08:07:39.261Z,1.87
2017-12-13T08:10:08.970Z,1.65
2017-12-13T08:12:38.516Z,1.77
2017-12-13T08:15:07.990Z,1.60
2017-12-13T08:17:37.505Z,1.20
2017-12-13T08:20:07.621Z,2.45
2017-12-13T08:22:37.156Z,1.48
2017-12-13T08:25:06.610Z,1.25
2017-12-13T08:27:36.122Z,1.42
2017-12-13T08:30:05.609Z,1.35
2017-12-13T08:32:35.111Z,2.17
2017-12-13T08:35:04.592Z,1.30
2017-12-13T08:37:34.108Z,1.05
2017-12-13T08:40:03.663Z,2.00
2017-12-13T08:42:33.775Z,1.80
2017-12-13T08:45:03.403Z,1.23
2017-12-13T08:47:32.881Z,2.65
2017-12-13T08:50:02.412Z,1.10
2017-12-13T08:52:31.861Z,3.20
2017-12-13T08:55:01.388Z,1.10
2017-12-13T08:57:30.899Z,2.33
2017-12-13T09:00:00.421Z,1.77
2017-12-13T09:02:30.541Z,3.08
2017-12-13T09:05:00.065Z,1.23
2017-12-13T09:07:29.543Z,1.08
2017-12-13T09:09:59.047Z,0.85
2017-12-13T09:12:28.514Z,1.65
2017-12-13T09:14:58.117Z,1.00
2017-12-13T09:17:27.585Z,2.00
2017-12-13T09:19:57.147Z,1.77
2017-12-13T09:22:26.649Z,1.20
2017-12-13T09:24:56.191Z,1.23
2017-12-13T09:27:25.709Z,1.33
2017-12-13T09:29:55.192Z,0.90
2017-12-13T09:32:24.751Z,1.45
2017-12-13T09:34:54.228Z,1.20
2017-12-13T09:37:23.732Z,1.00
2017-12-13T09:39:53.372Z,2.55
2017-12-13T09:42:22.909Z,1.52
2017-12-13T09:44:52.406Z,1.30
2017-12-13T09:47:21.932Z,0.80
2017-12-13T09:49:51.400Z,1.20
2017-12-13T09:52:20.936Z,1.35
2017-12-13T09:54:50.530Z,1.10
2017-12-13T09:57:20.026Z,1.67
2017-12-13T09:59:49.500Z,1.42
2017-12-13T10:02:19.896Z,1.83
2017-12-13T10:04:49.439Z,1.52
2017-12-13T10:07:18.938Z,1.02
2017-12-13T10:09:48.410Z,3.03
2017-12-13T10:12:17.930Z,1.20
2017-12-13T10:14:47.406Z,1.20
2017-12-13T10:17:16.949Z,1.10
2017-12-13T10:19:46.454Z,1.10
2017-12-13T10:22:15.939Z,1.40
2017-12-13T10:24:45.550Z,1.08
2017-12-13T10:27:15.125Z,1.15
2017-12-13T10:29:44.653Z,1.98
2017-12-13T10:32:14.153Z,1.62
2017-12-13T10:34:43.670Z,1.10
2017-12-13T10:37:13.235Z,1.20
2017-12-13T10:39:42.774Z,0.82
2017-12-13T10:42:12.275Z,1.10
2017-12-13T10:44:41.742Z,1.17
2017-12-13T10:47:11.268Z,0.85
2017-12-13T10:49:40.738Z,2.30
2017-12-13T10:52:10.263Z,2.25
2017-12-13T10:54:39.748Z,1.15
2017-12-13T10:57:09.342Z,1.70
2017-12-13T10:59:38.861Z,1.30
2017-12-13T11:02:08.399Z,1.30
2017-12-13T11:04:37.921Z,0.90
2017-12-13T11:07:07.545Z,1.10
2017-12-13T11:09:36.990Z,0.90
2017-12-13T11:12:06.516Z,0.80
2017-12-13T11:14:35.981Z,1.10
2017-12-13T11:17:05.500Z,1.40
2017-12-13T11:19:35.004Z,1.10
2017-12-13T11:22:05.512Z,1.27
2017-12-13T11:24:34.988Z,2.12
2017-12-13T11:27:04.581Z,1.02
2017-12-13T11:29:34.092Z,1.10
2017-12-13T11:32:03.589Z,1.17
2017-12-13T11:34:33.125Z,3.22
2017-12-13T11:37:02.649Z,1.20
2017-12-13T11:39:32.162Z,1.10
2017-12-13T11:42:01.732Z,1.00
2017-12-13T11:44:31.245Z,2.55
2017-12-13T11:47:00.723Z,1.20
2017-12-13T11:49:30.257Z,1.60
2017-12-13T11:51:59.745Z,1.20
2017-12-13T11:54:34.987Z,1.17
2017-12-13T11:57:04.513Z,1.20
2017-12-13T11:59:34.042Z,1.05
2017-12-13T12:02:03.579Z,2.08
2017-12-13T12:04:33.069Z,1.00
2017-12-13T12:07:02.890Z,1.67
2017-12-13T12:09:32.359Z,1.20
2017-12-13T12:12:02.013Z,1.00
2017-12-13T12:14:31.492Z,1.00
2017-12-13T12:17:01.000Z,1.17
2017-12-13T12:19:30.470Z,1.05
2017-12-13T12:21:59.988Z,1.10
2017-12-13T12:24:29.447Z,0.90
2017-12-13T12:26:59.122Z,1.55
2017-12-13T12:29:28.646Z,1.10
2017-12-13T12:31:58.152Z,0.90
2017-12-13T12:34:27.666Z,1.00
2017-12-13T12:36:57.275Z,1.52
2017-12-13T12:39:26.813Z,1.10
2017-12-13T12:41:56.303Z,1.00
2017-12-13T12:44:26.676Z,1.00
2017-12-13T12:46:56.174Z,0.80
2017-12-13T12:49:25.691Z,1.80
2017-12-13T12:51:55.203Z,0.90
2017-12-13T12:54:24.932Z,1.90
2017-12-13T12:56:54.454Z,1.40
2017-12-13T12:59:23.960Z,0.80
2017-12-13T13:01:53.464Z,0.90
2017-12-13T13:04:23.015Z,4.10
2017-12-13T13:06:52.524Z,1.15
2017-12-13T13:09:22.044Z,1.20
2017-12-13T13:11:51.631Z,1.40
2017-12-13T13:14:21.154Z,1.30
2017-12-13T13:16:50.721Z,1.35
2017-12-13T13:19:20.251Z,1.12
2017-12-13T13:21:49.720Z,1.15
2017-12-13T13:24:19.255Z,1.00
2017-12-13T13:26:48.754Z,0.93
2017-12-13T13:29:18.292Z,2.33
2017-12-13T13:31:47.905Z,1.85
2017-12-13T13:34:17.404Z,1.20
2017-12-13T13:36:46.917Z,1.10
2017-12-13T13:39:16.417Z,1.15
2017-12-13T13:41:45.993Z,1.00
2017-12-13T13:44:15.487Z,1.35
2017-12-13T13:46:45.026Z,0.70
2017-12-13T13:49:14.514Z,0.73
2017-12-13T13:51:44.015Z,0.80
2017-12-13T13:54:13.484Z,1.45
2017-12-13T13:56:43.050Z,0.82
2017-12-13T13:59:12.540Z,1.08
2017-12-13T14:01:42.072Z,0.93
2017-12-13T14:04:11.617Z,1.87
2017-12-13T14:06:41.162Z,0.80
2017-12-13T14:09:10.667Z,0.80
2017-12-13T14:11:40.237Z,0.98
2017-12-13T14:14:09.758Z,1.25
2017-12-13T14:16:39.224Z,0.70
2017-12-13T14:19:08.732Z,0.85
2017-12-13T14:21:38.231Z,1.00
2017-12-13T14:24:07.738Z,0.82
2017-12-13T14:26:37.219Z,1.00
2017-12-13T14:29:06.918Z,0.80
2017-12-13T14:31:36.425Z,1.05
2017-12-13T14:34:05.936Z,1.08
2017-12-13T14:36:35.503Z,1.33
2017-12-13T14:39:04.984Z,1.00
2017-12-13T14:41:34.494Z,0.90
2017-12-13T14:44:04.008Z,0.98
2017-12-13T14:46:33.532Z,0.90
2017-12-13T14:49:03.032Z,0.90
2017-12-13T14:51:32.569Z,0.80
2017-12-13T14:54:02.044Z,0.88
2017-12-13T14:56:31.617Z,1.10
2017-12-13T14:59:01.144Z,1.23
2017-12-13T15:01:30.665Z,1.37
2017-12-13T15:04:00.200Z,0.80
2017-12-13T15:06:29.777Z,0.90
2017-12-13T15:08:59.274Z,1.05
2017-12-13T15:11:28.785Z,0.80
2017-12-13T15:13:58.287Z,0.80
2017-12-13T15:16:27.843Z,0.95
2017-12-13T15:18:57.407Z,0.90
2017-12-13T15:21:26.921Z,0.75
2017-12-13T15:23:56.413Z,1.12
2017-12-13T15:26:25.897Z,0.85
2017-12-13T15:28:55.455Z,1.00
2017-12-13T15:31:24.940Z,0.90
2017-12-13T15:33:54.437Z,0.80
2017-12-13T15:36:23.952Z,1.50
2017-12-13T15:38:53.420Z,1.12
2017-12-13T15:41:23.931Z,0.80
2017-12-13T15:43:53.432Z,0.82
2017-12-13T15:46:22.940Z,0.80
2017-12-13T15:48:52.478Z,0.73
2017-12-13T15:51:21.952Z,0.93
2017-12-13T15:53:51.595Z,1.15
2017-12-13T15:56:21.062Z,1.67
2017-12-13T15:58:50.591Z,0.90
2017-12-13T16:01:20.091Z,0.70
2017-12-13T16:03:49.611Z,0.88
2017-12-13T16:06:19.170Z,0.70
2017-12-13T16:08:48.689Z,1.10
2017-12-13T16:11:18.168Z,0.90
2017-12-13T16:13:47.696Z,0.82
2017-12-13T16:16:17.224Z,1.12
2017-12-13T16:18:46.749Z,1.00
2017-12-13T16:21:16.255Z,0.70
2017-12-13T16:23:45.780Z,0.93
2017-12-13T16:26:15.380Z,1.25
2017-12-13T16:28:44.979Z,0.90
2017-12-13T16:31:14.454Z,0.80
2017-12-13T16:33:43.997Z,0.82
2017-12-13T16:36:13.492Z,0.77
2017-12-13T16:38:42.984Z,0.70
2017-12-13T16:41:12.483Z,1.05
2017-12-13T16:43:42.057Z,1.40
2017-12-13T16:46:11.579Z,0.70
2017-12-13T16:48:41.123Z,0.95
2017-12-13T16:51:10.660Z,0.80
2017-12-13T16:53:40.199Z,0.80
2017-12-13T16:56:09.781Z,0.70
2017-12-13T16:58:39.250Z,0.70
2017-12-13T17:01:08.796Z,0.90
2017-12-13T17:03:38.334Z,0.90
2017-12-13T17:06:07.820Z,0.70
2017-12-13T17:08:37.540Z,0.77
2017-12-13T17:11:07.049Z,1.87
2017-12-13T17:13:36.557Z,1.12
2017-12-13T17:16:06.161Z,0.82
2017-12-13T17:18:35.701Z,0.90
2017-12-13T17:21:05.156Z,0.80
2017-12-13T17:23:34.672Z,0.88
2017-12-13T17:26:04.166Z,0.80
2017-12-13T17:28:33.673Z,0.80
2017-12-13T17:31:03.166Z,0.62
2017-12-13T17:33:32.722Z,0.80
2017-12-13T17:36:02.241Z,1.00
2017-12-13T17:38:31.711Z,0.70
2017-12-13T17:41:01.260Z,2.08
2017-12-13T17:43:30.782Z,0.80
2017-12-13T17:46:00.279Z,0.75
2017-12-13T17:48:29.801Z,0.77
2017-12-13T17:50:59.322Z,1.35
2017-12-13T17:53:28.796Z,1.73
2017-12-13T17:55:58.318Z,2.15
2017-12-13T17:58:27.786Z,1.95
2017-12-13T18:00:57.294Z,3.58
2017-12-13T18:03:26.814Z,3.20
2017-12-13T18:05:56.340Z,2.47
2017-12-13T18:08:25.847Z,3.50
2017-12-13T18:10:55.335Z,3.45
2017-12-13T18:13:24.882Z,3.20
2017-12-13T18:15:54.409Z,2.00
2017-12-13T18:18:23.979Z,5.47
2017-12-13T18:20:53.700Z,4.30
2017-12-13T18:23:23.174Z,3.37
2017-12-13T18:25:52.706Z,3.95
2017-12-13T18:28:22.185Z,3.08
2017-12-13T18:30:51.721Z,2.10
2017-12-13T18:33:21.860Z,2.45
2017-12-13T18:35:51.346Z,3.50
2017-12-13T18:38:20.846Z,4.30
2017-12-13T18:40:50.322Z,6.62
2017-12-13T18:43:19.835Z,3.50
2017-12-13T18:45:49.387Z,3.85
2017-12-13T18:48:18.932Z,2.95
2017-12-13T18:50:48.418Z,3.78
2017-12-13T18:53:17.897Z,4.43
2017-12-13T18:55:47.388Z,4.68
2017-12-13T18:58:16.908Z,5.18
2017-12-13T19:00:46.429Z,3.80
2017-12-13T19:03:15.943Z,5.50
2017-12-13T19:05:45.786Z,5.97
2017-12-13T19:08:15.329Z,6.68
2017-12-13T19:10:44.935Z,8.20
2017-12-13T19:13:14.471Z,7.80
2017-12-13T19:15:44.094Z,4.10
2017-12-13T19:18:13.842Z,4.18
2017-12-13T19:20:43.354Z,5.20
2017-12-13T19:23:12.904Z,3.53
2017-12-13T19:25:42.442Z,3.00
2017-12-13T19:28:12.050Z,5.95
2017-12-13T19:30:41.598Z,3.78
2017-12-13T19:33:11.430Z,3.60
2017-12-13T19:35:41.028Z,5.87
2017-12-13T19:38:10.591Z,3.67
2017-12-13T19:40:40.177Z,5.60
2017-12-13T19:43:09.689Z,5.62
2017-12-13T19:45:39.243Z,6.20
2017-12-13T19:48:08.773Z,4.32
2017-12-13T19:50:38.331Z,4.80
2017-12-13T19:53:08.546Z,3.47
2017-12-13T19:55:38.363Z,4.75
2017-12-13T19:58:07.900Z,6.00
2017-12-13T20:00:37.429Z,5.68
2017-12-13T20:03:06.981Z,4.43
2017-12-13T20:05:36.515Z,4.20
2017-12-13T20:08:06.031Z,4.05
2017-12-13T20:10:35.587Z,2.67
2017-12-13T20:13:05.094Z,3.33
2017-12-13T20:15:34.792Z,4.30
2017-12-13T20:18:04.301Z,3.22
2017-12-13T20:20:33.963Z,2.60
2017-12-13T20:23:03.472Z,4.55
2017-12-13T20:25:34.009Z,3.95
2017-12-13T20:28:03.549Z,2.47
2017-12-13T20:30:33.976Z,3.95
2017-12-13T20:33:03.513Z,2.78
2017-12-13T20:35:33.022Z,5.05
2017-12-13T20:38:02.550Z,4.85
2017-12-13T20:40:32.058Z,5.55
2017-12-13T20:43:01.688Z,3.35
2017-12-13T20:45:31.931Z,3.47
2017-12-13T20:48:02.207Z,2.45
2017-12-13T20:50:32.310Z,2.85
2017-12-13T20:53:01.835Z,4.47
2017-12-13T20:55:31.387Z,4.20
2017-12-13T20:58:00.901Z,4.28
2017-12-13T21:00:30.519Z,2.70
2017-12-13T21:03:00.019Z,2.60
2017-12-13T21:05:29.567Z,3.05
2017-12-13T21:07:59.085Z,2.45
2017-12-13T21:10:28.622Z,3.00
2017-12-13T21:12:58.134Z,3.72
2017-12-13T21:15:27.740Z,2.90
2017-12-13T21:17:57.300Z,3.65
2017-12-13T21:20:26.785Z,3.12
2017-12-13T21:22:56.312Z,2.78
2017-12-13T21:25:25.878Z,2.20
2017-12-13T21:27:55.484Z,3.53
2017-12-13T21:30:24.965Z,3.65
2017-12-13T21:32:54.488Z,2.95
2017-12-13T21:35:24.033Z,3.12
2017-12-13T21:37:53.515Z,2.62
2017-12-13T21:40:23.195Z,2.85
2017-12-13T21:42:52.696Z,2.08
2017-12-13T21:45:22.207Z,3.08
2017-12-13T21:47:51.756Z,2.47
2017-12-13T21:50:21.457Z,3.53
2017-12-13T21:52:50.970Z,2.67
2017-12-13T21:55:20.516Z,2.55
2017-12-13T21:57:50.131Z,2.70
2017-12-13T22:00:19.640Z,2.30
2017-12-13T22:02:49.128Z,2.05
2017-12-13T22:05:18.652Z,1.80
2017-12-13T22:07:48.161Z,3.35
2017-12-13T22:10:17.697Z,1.90
2017-12-13T22:12:47.292Z,4.15
2017-12-13T22:15:16.764Z,2.58
2017-12-13T22:17:46.253Z,1.60
2017-12-13T22:20:15.744Z,1.50
2017-12-13T22:22:45.269Z,2.28
2017-12-13T22:25:14.778Z,2.28
2017-12-13T22:27:44.300Z,2.22
2017-12-13T22:30:13.887Z,2.20
2017-12-13T22:32:43.368Z,2.60
2017-12-13T22:35:12.892Z,2.28
2017-12-13T22:37:42.424Z,2.08
2017-12-13T22:40:11.923Z,1.60
2017-12-13T22:42:41.541Z,2.08
2017-12-13T22:45:11.045Z,1.65
2017-12-13T22:47:40.515Z,1.77
2017-12-13T22:50:10.054Z,1.87
2017-12-13T22:52:39.607Z,1.60
2017-12-13T22:55:09.126Z,2.10
2017-12-13T22:57:38.667Z,2.78
2017-12-13T23:00:08.167Z,1.70
2017-12-13T23:02:37.672Z,1.90
2017-12-13T23:05:07.224Z,1.70
2017-12-13T23:07:36.699Z,1.33
2017-12-13T23:10:06.190Z,1.65
2017-12-13T23:12:35.680Z,2.30
2017-12-13T23:15:05.356Z,1.95
2017-12-13T23:17:34.851Z,1.58
2017-12-13T23:20:04.921Z,1.98
2017-12-13T23:22:34.417Z,2.62
2017-12-13T23:25:03.923Z,1.45
2017-12-13T23:27:33.441Z,2.35
2017-12-13T23:30:02.916Z,2.45
2017-12-13T23:32:32.445Z,1.37
2017-12-13T23:35:02.682Z,2.20
2017-12-13T23:37:32.756Z,2.62
2017-12-13T23:40:02.292Z,1.80
2017-12-13T23:42:31.912Z,1.75
2017-12-13T23:45:01.362Z,1.80
2017-12-13T23:47:30.912Z,1.60
2017-12-13T23:50:00.444Z,2.53
2017-12-13T23:52:30.001Z,2.15
2017-12-13T23:54:59.499Z,1.90
2017-12-13T23:57:29.021Z,1.92
2017-12-13T23:59:58.512Z,2.17
